Time;durP1;ratioP1;P1;durP2;ratioP2;P2;SDS_P1;SDS_P2;PMS_P1;PMS_P2;Temp;Humidity;BMP_temperature;BMP_pressure;BME280_temperature;BME280_humidity;BME280_pressure;Samples;Min_cycle;Max_cycle;Signal;HPM_P1;HPM_P2
2021/09/08 00:01:25;;;;;;;12.07;7.97;;;;;;;17.91;66.21;97057.66;5013376;28;20295;-60
2021/09/08 00:03:51;;;;;;;10.00;7.33;;;;;;;17.91;66.05;97061.09;5013093;28;20266;-60
2021/09/08 00:06:16;;;;;;;11.10;8.40;;;;;;;18.11;65.66;97065.63;5012913;28;20230;-60
2021/09/08 00:08:42;;;;;;;14.03;8.80;;;;;;;18.04;65.66;97060.59;5012815;28;20566;-59
2021/09/08 00:11:07;;;;;;;9.40;7.30;;;;;;;17.84;65.90;97052.63;5013073;28;20218;-59
2021/09/08 00:13:32;;;;;;;10.57;8.33;;;;;;;17.70;66.50;97055.03;5015528;28;20187;-60
2021/09/08 00:15:58;;;;;;;9.67;7.53;;;;;;;17.75;66.41;97051.56;5017286;28;20175;-59
2021/09/08 00:18:23;;;;;;;9.73;7.70;;;;;;;17.83;66.30;97049.16;5015631;28;20222;-60
2021/09/08 00:20:49;;;;;;;12.57;7.67;;;;;;;17.78;66.33;97051.03;5016669;28;20647;-63
2021/09/08 00:23:14;;;;;;;12.13;8.77;;;;;;;17.63;66.97;97043.06;5016650;28;20313;-60
2021/09/08 00:25:40;;;;;;;10.87;8.03;;;;;;;17.80;66.25;97036.44;5016483;28;20186;-60
2021/09/08 00:28:05;;;;;;;12.43;8.17;;;;;;;17.77;66.37;97036.19;5016633;28;20207;-59
2021/09/08 00:30:30;;;;;;;10.83;7.60;;;;;;;17.73;66.49;97038.56;5016873;28;20237;-60
2021/09/08 00:32:56;;;;;;;11.70;8.57;;;;;;;17.69;66.62;97032.22;5016886;28;20359;-59
2021/09/08 00:35:22;;;;;;;11.43;7.90;;;;;;;17.64;66.54;97026.13;5015104;28;20637;-60
2021/09/08 00:37:47;;;;;;;10.53;7.87;;;;;;;17.63;66.67;97027.97;5016266;28;20190;-60
2021/09/08 00:40:13;;;;;;;10.73;7.97;;;;;;;17.71;66.39;97022.16;5016253;28;20231;-60
2021/09/08 00:42:38;;;;;;;8.97;7.70;;;;;;;17.62;66.61;97026.38;5015729;28;20219;-59
2021/09/08 00:45:04;;;;;;;10.53;8.30;;;;;;;17.65;66.86;97019.75;5016281;28;20183;-59
2021/09/08 00:47:30;;;;;;;10.63;7.50;;;;;;;17.52;67.15;97026.34;5016403;28;20253;-59
2021/09/08 00:49:55;;;;;;;9.23;7.77;;;;;;;17.49;67.38;97021.59;5015820;28;20179;-60
2021/09/08 00:52:22;;;;;;;10.83;7.83;;;;;;;17.40;67.80;97021.31;5016008;28;20338;-60
2021/09/08 00:54:50;;;;;;;11.30;7.90;;;;;;;17.41;67.60;97014.94;5016296;28;20203;-59
2021/09/08 00:57:17;;;;;;;9.93;7.80;;;;;;;17.71;66.58;97016.84;4998696;28;20235;-60
2021/09/08 00:59:44;;;;;;;11.17;8.30;;;;;;;17.46;67.51;97012.28;4996858;28;20235;-60
2021/09/08 01:02:10;;;;;;;10.67;7.67;;;;;;;17.17;68.69;97015.69;4996179;28;20180;-60
2021/09/08 01:04:36;;;;;;;12.17;8.77;;;;;;;17.07;69.30;97013.84;4996253;28;20176;-60
2021/09/08 01:07:04;;;;;;;8.73;7.20;;;;;;;17.12;68.95;97015.69;4996276;28;20203;-60
2021/09/08 01:09:29;;;;;;;12.27;8.47;;;;;;;17.29;68.53;97014.41;4996661;28;20188;-60
2021/09/08 01:11:56;;;;;;;10.80;8.73;;;;;;;17.20;68.67;97015.19;4996298;28;20184;-60
2021/09/08 01:14:21;;;;;;;11.43;8.17;;;;;;;17.41;67.97;97017.59;4996309;28;20181;-60
2021/09/08 01:16:51;;;;;;;10.77;7.90;;;;;;;17.31;68.22;97012.28;4995987;28;20176;-60
2021/09/08 01:19:17;;;;;;;9.87;7.77;;;;;;;17.19;68.71;97018.91;4994665;28;20275;-60
2021/09/08 01:21:42;;;;;;;11.73;7.47;;;;;;;17.15;68.96;97015.97;4995982;28;20270;-59
2021/09/08 01:24:08;;;;;;;13.77;7.80;;;;;;;16.97;69.53;97011.97;4995361;28;20676;-60
2021/09/08 01:26:35;;;;;;;9.67;7.47;;;;;;;17.10;69.42;97015.19;4996038;28;20184;-59
2021/09/08 01:29:01;;;;;;;10.40;8.03;;;;;;;17.04;69.39;97015.16;4995861;28;20204;-59
2021/09/08 01:31:27;;;;;;;12.67;7.83;;;;;;;17.22;68.78;97005.91;4995972;28;20191;-60
2021/09/08 01:33:53;;;;;;;11.17;8.03;;;;;;;17.10;69.37;97009.88;5010623;28;20636;-60
2021/09/08 01:36:18;;;;;;;11.97;8.37;;;;;;;17.07;69.29;97010.38;4995753;28;20525;-60
2021/09/08 01:38:43;;;;;;;10.90;7.80;;;;;;;16.80;70.62;97013.25;4995611;28;20227;-60
2021/09/08 01:41:09;;;;;;;12.20;7.97;;;;;;;16.67;71.07;97009.22;4995230;28;20637;-60
2021/09/08 01:43:34;;;;;;;10.97;8.33;;;;;;;16.75;70.82;97013.22;4995790;28;20195;-60
2021/09/08 01:46:00;;;;;;;11.37;8.63;;;;;;;16.85;70.51;97000.00;4995590;28;20207;-59
2021/09/08 01:48:25;;;;;;;10.67;7.87;;;;;;;16.83;70.64;97007.44;4995560;28;20204;-59
2021/09/08 01:50:50;;;;;;;10.70;7.67;;;;;;;16.74;71.07;97003.69;4995352;28;20230;-59
2021/09/08 01:53:16;;;;;;;9.97;7.73;;;;;;;16.86;70.61;96991.03;4995527;28;20223;-64
2021/09/08 01:55:41;;;;;;;11.07;8.07;;;;;;;17.04;69.75;96993.97;5003214;28;20470;-61
2021/09/08 01:58:07;;;;;;;9.30;8.10;;;;;;;17.12;69.42;96999.81;5014758;28;20554;-59
2021/09/08 02:00:32;;;;;;;10.00;8.73;;;;;;;17.06;69.85;96993.69;5015484;28;20695;-59
2021/09/08 02:02:58;;;;;;;10.93;7.87;;;;;;;16.85;70.59;96990.22;5014721;28;20187;-61
2021/09/08 02:05:23;;;;;;;10.67;8.23;;;;;;;16.77;70.93;96993.38;5014692;28;20206;-59
2021/09/08 02:07:48;;;;;;;13.73;8.83;;;;;;;16.62;71.78;96996.75;5014856;28;20215;-60
2021/09/08 02:10:14;;;;;;;10.27;8.73;;;;;;;16.77;70.99;96995.25;5014837;28;20262;-60
2021/09/08 02:12:42;;;;;;;10.80;8.93;;;;;;;16.65;71.85;96992.81;5014757;28;20624;-60
2021/09/08 02:15:08;;;;;;;14.13;8.57;;;;;;;16.52;72.64;96988.75;5014673;28;20207;-60
2021/09/08 02:17:34;;;;;;;11.13;8.57;;;;;;;16.80;71.42;96989.41;5015043;28;20183;-61
2021/09/08 02:19:59;;;;;;;12.70;8.90;;;;;;;16.76;71.52;96993.66;5014596;28;20187;-60
2021/09/08 02:22:24;;;;;;;12.33;8.97;;;;;;;16.79;71.45;96987.81;5014519;28;20694;-60
2021/09/08 02:24:50;;;;;;;11.00;8.80;;;;;;;16.76;71.49;96989.16;5014271;28;20196;-60
2021/09/08 02:27:15;;;;;;;13.77;9.30;;;;;;;16.82;71.04;96987.31;5014439;28;20542;-60
2021/09/08 02:29:41;;;;;;;11.93;8.57;;;;;;;16.69;71.66;96975.34;5014747;28;20186;-60
2021/09/08 02:32:06;;;;;;;12.27;8.87;;;;;;;16.73;71.56;96979.06;5014409;28;20180;-60
2021/09/08 02:34:32;;;;;;;12.10;9.10;;;;;;;16.81;71.47;96972.47;5014194;28;20179;-60
2021/09/08 02:36:57;;;;;;;14.03;10.20;;;;;;;16.89;70.86;96977.25;5012065;28;20258;-60
2021/09/08 02:39:23;;;;;;;14.23;9.83;;;;;;;16.82;71.36;96982.00;5013482;28;20230;-61
2021/09/08 02:41:48;;;;;;;12.80;9.33;;;;;;;16.83;71.07;96973.03;5013639;28;20195;-60
2021/09/08 02:44:14;;;;;;;13.37;9.67;;;;;;;16.81;71.31;96972.47;5014132;28;20199;-63
2021/09/08 02:46:40;;;;;;;14.40;9.47;;;;;;;16.82;71.31;96971.44;5029296;28;20554;-60
2021/09/08 02:49:05;;;;;;;15.87;9.53;;;;;;;16.73;71.75;96971.13;5013994;28;20242;-60
2021/09/08 02:51:30;;;;;;;13.90;10.00;;;;;;;16.69;71.70;96967.41;5029153;28;20251;-61
2021/09/08 02:53:56;;;;;;;14.20;9.87;;;;;;;16.61;72.02;96971.34;5013830;28;20683;-65
2021/09/08 02:56:21;;;;;;;12.20;9.93;;;;;;;16.56;72.15;96967.84;4995480;28;20218;-60
2021/09/08 02:58:46;;;;;;;15.33;10.00;;;;;;;16.59;72.25;96970.03;4994056;28;20199;-60
2021/09/08 03:01:12;;;;;;;13.63;9.67;;;;;;;16.48;72.69;96965.72;4994672;28;20208;-60
2021/09/08 03:03:38;;;;;;;15.23;10.73;;;;;;;16.52;72.47;96964.16;4993026;28;20254;-60
2021/09/08 03:06:03;;;;;;;13.53;10.23;;;;;;;16.41;72.76;96963.31;4993856;28;20180;-66
2021/09/08 03:08:29;;;;;;;13.80;9.93;;;;;;;16.19;73.79;96957.41;4994002;28;20219;-60
2021/09/08 03:10:54;;;;;;;12.70;10.07;;;;;;;16.42;72.88;96956.97;4993870;28;20192;-60
2021/09/08 03:13:19;;;;;;;13.87;9.97;;;;;;;16.10;74.11;96951.81;4994285;28;20191;-60
2021/09/08 03:15:46;;;;;;;15.90;10.27;;;;;;;16.03;74.51;96955.75;4993947;28;20534;-60
2021/09/08 03:18:12;;;;;;;12.77;9.50;;;;;;;16.16;73.85;96952.66;4994142;28;20267;-60
2021/09/08 03:20:37;;;;;;;14.83;10.80;;;;;;;16.12;74.08;96951.53;4993698;28;20264;-60
2021/09/08 03:23:03;;;;;;;14.47;10.73;;;;;;;15.98;74.41;96945.13;4993420;28;20184;-61
2021/09/08 03:25:29;;;;;;;13.40;9.93;;;;;;;15.88;74.68;96948.53;4993896;28;20200;-60
2021/09/08 03:27:55;;;;;;;12.23;9.60;;;;;;;16.07;73.82;96944.38;4993826;28;20211;-59
2021/09/08 03:30:20;;;;;;;13.53;10.00;;;;;;;16.04;73.72;96942.28;5009163;28;20323;-60
2021/09/08 03:32:45;;;;;;;12.03;9.70;;;;;;;15.85;74.39;96935.81;4993953;28;20187;-60
2021/09/08 03:35:11;;;;;;;12.30;9.70;;;;;;;16.05;73.79;96938.56;4993734;28;20211;-60
2021/09/08 03:37:37;;;;;;;11.87;9.07;;;;;;;16.09;73.37;96936.22;4993258;28;20188;-60
2021/09/08 03:40:04;;;;;;;12.80;9.60;;;;;;;15.86;74.11;96929.47;4993589;28;20243;-60
2021/09/08 03:42:29;;;;;;;12.30;9.77;;;;;;;16.03;73.54;96934.59;4992738;28;20517;-60
2021/09/08 03:44:55;;;;;;;13.50;9.63;;;;;;;16.19;72.73;96933.59;4993590;28;20190;-60
2021/09/08 03:47:20;;;;;;;14.20;9.07;;;;;;;16.12;72.52;96933.84;4993002;28;20176;-60
2021/09/08 03:49:46;;;;;;;11.97;8.93;;;;;;;15.98;72.87;96930.06;4993737;28;20617;-60
2021/09/08 03:52:16;;;;;;;11.40;9.47;;;;;;;16.05;72.89;96925.34;4993282;28;20509;-61
2021/09/08 03:54:42;;;;;;;13.67;10.10;;;;;;;16.00;73.07;96929.78;5000922;28;20191;-60
2021/09/08 03:57:07;;;;;;;13.60;9.10;;;;;;;15.93;73.03;96927.41;5012924;28;20254;-60
2021/09/08 03:59:37;;;;;;;13.20;9.47;;;;;;;15.99;72.94;96925.59;5013300;28;20210;-60
2021/09/08 04:02:03;;;;;;;12.23;8.87;;;;;;;15.94;72.26;96925.56;5013169;28;20293;-60
2021/09/08 04:04:28;;;;;;;11.37;8.50;;;;;;;16.02;71.85;96922.41;5012706;28;20180;-60
2021/09/08 04:06:54;;;;;;;13.47;9.33;;;;;;;15.89;72.17;96922.88;5012703;28;20178;-60
2021/09/08 04:09:19;;;;;;;13.10;9.03;;;;;;;15.85;72.28;96925.25;5012630;28;20257;-60
2021/09/08 04:11:45;;;;;;;12.00;8.80;;;;;;;15.75;72.83;96920.69;5012844;28;20528;-60
2021/09/08 04:14:11;;;;;;;12.57;8.93;;;;;;;15.74;72.41;96919.09;5013084;28;20198;-60
2021/09/08 04:16:36;;;;;;;13.57;8.53;;;;;;;15.70;72.53;96923.31;5013081;28;20195;-60
2021/09/08 04:19:02;;;;;;;11.53;9.00;;;;;;;15.71;72.41;96919.63;5012928;28;20540;-60
2021/09/08 04:21:27;;;;;;;10.90;8.37;;;;;;;15.88;71.52;96910.72;5012561;28;20262;-60
2021/09/08 04:23:53;;;;;;;10.47;8.00;;;;;;;15.90;71.19;96908.59;5012728;28;20521;-60
2021/09/08 04:26:19;;;;;;;12.83;8.67;;;;;;;15.83;71.46;96910.69;5012510;28;20172;-61
2021/09/08 04:28:44;;;;;;;9.70;8.37;;;;;;;16.03;70.46;96913.44;5012816;28;20195;-60
2021/09/08 04:31:09;;;;;;;11.07;9.07;;;;;;;15.73;71.57;96909.56;5012892;28;20266;-60
2021/09/08 04:33:35;;;;;;;11.37;8.37;;;;;;;15.43;72.57;96905.94;5012535;28;20179;-61
2021/09/08 04:36:00;;;;;;;11.17;8.77;;;;;;;15.54;72.37;96912.91;5027802;28;20552;-60
2021/09/08 04:38:26;;;;;;;13.10;8.70;;;;;;;15.58;72.25;96912.13;5012505;28;20237;-61
2021/09/08 04:40:51;;;;;;;12.40;8.37;;;;;;;15.53;72.46;96912.09;5012470;28;20270;-62
2021/09/08 04:43:17;;;;;;;11.13;8.47;;;;;;;15.52;72.54;96909.72;5012373;28;20179;-61
2021/09/08 04:45:43;;;;;;;11.73;8.43;;;;;;;15.51;72.68;96908.88;5012398;28;20700;-61
2021/09/08 04:48:08;;;;;;;12.43;8.77;;;;;;;15.59;72.20;96911.09;5012577;28;20209;-60
2021/09/08 04:50:34;;;;;;;11.83;8.20;;;;;;;15.43;72.75;96911.22;5012479;28;20261;-60
2021/09/08 04:52:59;;;;;;;9.93;8.50;;;;;;;15.46;72.94;96910.69;5012375;28;20210;-60
2021/09/08 04:55:25;;;;;;;12.40;8.10;;;;;;;15.32;73.56;96908.47;4994549;28;20641;-61
2021/09/08 04:57:50;;;;;;;11.17;8.90;;;;;;;15.37;73.09;96908.53;4993385;28;20284;-61
2021/09/08 05:00:16;;;;;;;15.17;8.77;;;;;;;15.19;74.20;96906.28;4997211;28;20188;-60
2021/09/08 05:02:41;;;;;;;14.40;8.70;;;;;;;15.33;73.74;96906.63;4996898;28;20188;-61
2021/09/08 05:05:07;;;;;;;12.37;8.10;;;;;;;15.40;73.40;96905.38;4996363;28;20183;-60
2021/09/08 05:07:32;;;;;;;11.30;8.37;;;;;;;15.43;73.41;96919.13;4995226;28;20282;-60
2021/09/08 05:09:58;;;;;;;11.13;8.57;;;;;;;15.54;72.73;96910.25;4996607;28;20180;-60
2021/09/08 05:12:23;;;;;;;10.87;8.43;;;;;;;15.67;72.65;96912.44;4996330;28;20687;-60
2021/09/08 05:14:48;;;;;;;11.33;7.97;;;;;;;16.16;70.45;96908.44;4995036;28;20188;-60
2021/09/08 05:17:14;;;;;;;10.73;8.37;;;;;;;16.35;70.01;96908.78;4996034;28;20175;-61
2021/09/08 05:19:39;;;;;;;11.00;8.47;;;;;;;16.75;68.53;96909.97;4996057;28;20607;-60
2021/09/08 05:22:05;;;;;;;10.47;8.17;;;;;;;16.92;67.51;96910.53;4995881;28;20176;-60
2021/09/08 05:24:30;;;;;;;12.03;8.23;;;;;;;17.03;67.00;96905.00;4995912;28;20184;-58
2021/09/08 05:26:56;;;;;;;9.67;7.90;;;;;;;17.19;66.24;96915.59;4995692;28;20637;-58
2021/09/08 05:29:21;;;;;;;9.73;7.90;;;;;;;17.13;66.11;96906.84;4995944;28;20243;-59
2021/09/08 05:31:46;;;;;;;10.30;8.27;;;;;;;17.18;65.96;96911.34;4995574;28;20188;-58
2021/09/08 05:34:12;;;;;;;15.13;7.93;;;;;;;17.29;65.44;96912.94;4995592;28;20262;-58
2021/09/08 05:36:37;;;;;;;11.37;8.07;;;;;;;17.38;65.58;96917.44;4995527;28;20223;-58
2021/09/08 05:39:03;;;;;;;9.70;7.30;;;;;;;17.40;65.17;96911.84;4995195;28;20235;-58
2021/09/08 05:41:28;;;;;;;11.07;7.63;;;;;;;17.42;65.11;96905.25;4995048;28;20186;-59
2021/09/08 05:43:54;;;;;;;10.33;7.73;;;;;;;17.43;64.67;96908.69;4995724;28;20598;-59
2021/09/08 05:46:20;;;;;;;8.93;7.17;;;;;;;17.37;65.29;96907.09;4995297;28;20546;-59
2021/09/08 05:48:45;;;;;;;12.13;7.47;;;;;;;17.23;65.48;96913.97;4995694;28;20196;-59
2021/09/08 05:51:10;;;;;;;9.80;7.13;;;;;;;17.20;65.03;96912.69;4995393;28;20613;-59
2021/09/08 05:53:36;;;;;;;9.43;7.70;;;;;;;17.31;64.67;96914.25;4995195;28;20207;-60
2021/09/08 05:56:01;;;;;;;9.83;7.57;;;;;;;17.48;64.14;96913.19;4995203;28;20172;-60
2021/09/08 05:58:27;;;;;;;11.10;7.17;;;;;;;17.26;64.39;96922.22;4995481;28;20275;-59
2021/09/08 06:00:52;;;;;;;12.47;7.40;;;;;;;17.29;63.79;96915.56;4995241;28;20642;-59
2021/09/08 06:03:18;;;;;;;9.00;7.00;;;;;;;17.55;63.65;96908.41;4995097;28;20206;-59
2021/09/08 06:05:43;;;;;;;8.90;7.40;;;;;;;17.73;62.58;96908.66;4994840;28;20533;-59
2021/09/08 06:08:08;;;;;;;7.97;6.50;;;;;;;17.78;62.62;96915.78;4994922;28;20188;-60
2021/09/08 06:10:34;;;;;;;9.10;6.67;;;;;;;17.75;62.50;96914.50;4994561;28;20192;-60
2021/09/08 06:12:59;;;;;;;9.70;6.87;;;;;;;18.16;61.63;96915.19;4995132;28;20204;-59
2021/09/08 06:15:25;;;;;;;9.57;6.20;;;;;;;18.20;61.33;96910.09;4995089;28;20192;-60
2021/09/08 06:17:50;;;;;;;7.20;6.27;;;;;;;18.33;61.16;96922.00;4994920;28;20220;-60
2021/09/08 06:20:16;;;;;;;9.50;6.43;;;;;;;17.97;60.64;96908.84;4995219;28;20262;-59
2021/09/08 06:22:42;;;;;;;9.48;7.15;;;;;;;18.09;60.44;96913.88;4994776;28;20238;-59
2021/09/08 06:25:09;;;;;;;11.03;6.20;;;;;;;18.15;60.58;96910.13;4994389;28;20191;-60
2021/09/08 06:27:34;;;;;;;7.83;5.90;;;;;;;18.26;58.95;96909.03;4995061;28;20191;-59
2021/09/08 06:30:00;;;;;;;8.03;6.13;;;;;;;18.21;59.39;96909.06;4994877;28;20188;-59
2021/09/08 06:32:26;;;;;;;8.45;6.32;;;;;;;18.28;58.58;96902.38;4995103;28;20270;-59
2021/09/08 06:34:51;;;;;;;6.53;5.53;;;;;;;18.33;59.44;96908.72;4994924;28;20273;-59
2021/09/08 06:37:16;;;;;;;6.47;5.10;;;;;;;18.47;56.90;96907.84;4993951;28;20295;-59
2021/09/08 06:39:42;;;;;;;8.30;6.07;;;;;;;18.57;57.46;96897.22;4993779;28;20238;-63
2021/09/08 06:42:08;;;;;;;9.88;5.95;;;;;;;18.83;57.75;96900.50;4993660;28;20173;-60
2021/09/08 06:44:33;;;;;;;7.63;5.68;;;;;;;18.79;58.03;96903.97;4993804;28;20180;-60
2021/09/08 06:46:59;;;;;;;8.60;5.88;;;;;;;19.11;56.47;96891.78;4993783;28;20172;-60
2021/09/08 06:49:24;;;;;;;6.85;5.75;;;;;;;19.16;56.39;96892.84;4993463;28;20199;-60
2021/09/08 06:51:49;;;;;;;8.63;5.68;;;;;;;19.47;56.21;96891.50;4992754;28;20180;-62
2021/09/08 06:54:15;;;;;;;8.45;6.10;;;;;;;19.49;55.33;96892.84;5009722;28;20581;-61
2021/09/08 06:56:40;;;;;;;8.95;6.38;;;;;;;19.65;54.66;96896.13;5013472;28;20178;-61
2021/09/08 06:59:06;;;;;;;9.30;6.07;;;;;;;19.27;55.50;96894.34;5013194;28;20631;-61
2021/09/08 07:01:31;;;;;;;7.65;5.93;;;;;;;19.14;56.47;96894.97;5013874;28;20179;-60
2021/09/08 07:03:57;;;;;;;7.00;5.45;;;;;;;19.31;55.87;96893.50;5013806;28;20176;-61
2021/09/08 07:06:23;;;;;;;7.35;5.70;;;;;;;19.35;56.79;96886.53;5013607;28;20183;-61
2021/09/08 07:08:50;;;;;;;7.03;5.80;;;;;;;19.34;55.57;96876.16;5013586;28;20261;-61
2021/09/08 07:11:16;;;;;;;6.38;5.53;;;;;;;18.82;56.99;96884.84;5013411;28;20214;-61
2021/09/08 07:13:41;;;;;;;7.97;5.10;;;;;;;18.85;57.00;96878.97;5013657;28;20241;-60
2021/09/08 07:16:07;;;;;;;7.53;5.40;;;;;;;19.30;56.96;96877.81;5013243;28;20183;-61
2021/09/08 07:18:32;;;;;;;8.60;6.18;;;;;;;19.19;56.94;96881.63;5013182;28;20270;-61
2021/09/08 07:20:58;;;;;;;7.93;5.90;;;;;;;19.41;56.54;96880.09;5012358;28;20171;-60
2021/09/08 07:23:23;;;;;;;7.35;5.57;;;;;;;19.66;55.86;96878.31;5012677;28;20179;-61
2021/09/08 07:25:48;;;;;;;7.10;5.22;;;;;;;19.87;55.80;96874.34;5013253;28;20621;-61
2021/09/08 07:28:14;;;;;;;7.55;5.32;;;;;;;20.19;55.30;96879.81;5013388;28;20242;-61
2021/09/08 07:30:39;;;;;;;7.22;5.57;;;;;;;20.39;54.06;96875.34;5013562;28;20187;-61
2021/09/08 07:33:05;;;;;;;5.82;5.22;;;;;;;20.48;54.27;96877.06;5013077;28;20226;-61
2021/09/08 07:35:30;;;;;;;7.72;6.10;;;;;;;20.25;53.56;96877.88;5011887;28;20580;-61
2021/09/08 07:37:57;;;;;;;7.22;5.15;;;;;;;20.16;54.48;96875.06;5012944;28;20183;-61
2021/09/08 07:40:23;;;;;;;9.10;6.07;;;;;;;20.47;53.58;96878.16;5012474;28;20235;-61
2021/09/08 07:42:51;;;;;;;6.85;5.30;;;;;;;20.37;53.63;96872.16;5012953;28;20212;-61
2021/09/08 07:45:16;;;;;;;6.63;5.13;;;;;;;20.06;53.87;96879.72;5012742;28;20187;-61
2021/09/08 07:47:42;;;;;;;7.40;5.93;;;;;;;19.77;54.49;96875.25;5012839;28;20211;-61
2021/09/08 07:50:08;;;;;;;7.18;5.75;;;;;;;19.92;54.17;96874.28;5011754;28;20646;-60
2021/09/08 07:52:33;;;;;;;7.18;5.47;;;;;;;20.13;54.06;96869.50;5006244;28;20188;-61
2021/09/08 07:54:58;;;;;;;6.25;5.28;;;;;;;20.20;53.97;96877.94;4993132;28;20228;-61
2021/09/08 07:57:24;;;;;;;8.50;5.65;;;;;;;19.99;53.64;96877.41;4993453;28;20237;-61
2021/09/08 07:59:49;;;;;;;7.82;5.80;;;;;;;19.81;54.75;96872.81;4992936;28;20187;-61
2021/09/08 08:02:15;;;;;;;8.10;6.28;;;;;;;20.00;53.30;96875.53;4993514;28;20225;-61
2021/09/08 08:04:40;;;;;;;8.02;5.68;;;;;;;20.19;54.03;96876.34;4992389;28;20187;-60
2021/09/08 08:07:06;;;;;;;7.75;5.38;;;;;;;20.40;54.04;96875.03;4993345;28;20649;-61
2021/09/08 08:09:31;;;;;;;6.65;5.32;;;;;;;20.28;53.88;96867.44;4992949;28;20226;-61
2021/09/08 08:11:56;;;;;;;7.20;5.47;;;;;;;20.43;54.24;96873.69;4993054;28;20203;-63
2021/09/08 08:14:22;;;;;;;9.25;5.82;;;;;;;20.60;53.94;96866.00;4992809;28;20184;-61
2021/09/08 08:16:47;;;;;;;5.93;5.18;;;;;;;20.81;52.46;96866.47;4993458;28;20267;-60
2021/09/08 08:19:12;;;;;;;6.85;5.57;;;;;;;20.84;52.73;96864.03;4993250;28;20188;-60
2021/09/08 08:21:38;;;;;;;7.47;5.55;;;;;;;21.01;51.88;96858.94;4992996;28;20187;-60
2021/09/08 08:24:04;;;;;;;7.25;5.45;;;;;;;21.14;51.47;96866.25;4992887;28;20644;-60
2021/09/08 08:26:29;;;;;;;8.68;5.72;;;;;;;21.12;51.37;96864.94;4992764;28;20192;-60
2021/09/08 08:28:55;;;;;;;7.38;6.22;;;;;;;20.66;52.89;96870.16;4992649;28;20204;-61
2021/09/08 08:31:20;;;;;;;7.43;5.53;;;;;;;20.62;53.19;96871.81;4992821;28;20706;-61
2021/09/08 08:33:48;;;;;;;6.60;5.07;;;;;;;20.84;52.59;96860.59;4994608;28;20639;-61
2021/09/08 08:36:14;;;;;;;10.27;5.85;;;;;;;21.01;52.01;96866.94;4995601;28;20194;-60
2021/09/08 08:38:40;;;;;;;8.85;5.60;;;;;;;21.28;51.61;96862.84;4996734;28;20231;-61
2021/09/08 08:41:06;;;;;;;8.35;5.63;;;;;;;20.90;52.29;96864.75;4995969;28;20187;-61
2021/09/08 08:43:32;;;;;;;8.02;5.85;;;;;;;20.67;52.44;96864.53;5009169;28;20202;-61
2021/09/08 08:45:58;;;;;;;7.53;5.35;;;;;;;20.85;51.93;96865.59;5028843;28;20190;-65
2021/09/08 08:48:24;;;;;;;6.88;5.32;;;;;;;20.68;52.73;96868.78;5014015;28;20755;-61
2021/09/08 08:50:51;;;;;;;8.30;5.60;;;;;;;20.88;53.28;96861.59;5013682;28;20282;-60
2021/09/08 08:53:16;;;;;;;7.38;5.90;;;;;;;20.63;52.69;96865.41;5007974;28;20187;-63
2021/09/08 08:55:41;;;;;;;7.65;5.78;;;;;;;20.96;52.19;96856.38;5015298;28;20183;-62
2021/09/08 08:58:07;;;;;;;6.60;5.60;;;;;;;21.14;52.55;96855.56;5015689;28;20691;-61
2021/09/08 09:00:32;;;;;;;7.30;4.97;;;;;;;21.37;52.39;96850.41;5015770;28;20183;-61
2021/09/08 09:02:58;;;;;;;7.43;5.30;;;;;;;21.31;52.80;96852.38;5014859;28;20199;-62
2021/09/08 09:05:36;;;;;;;6.65;5.35;;;;;;;21.32;51.58;96853.16;5015241;28;20176;-62
2021/09/08 09:08:04;;;;;;;7.68;5.13;;;;;;;21.57;51.31;96839.34;5015121;28;20203;-62
2021/09/08 09:10:30;;;;;;;6.97;5.47;;;;;;;21.81;50.72;96839.16;5014844;28;20266;-61
2021/09/08 09:12:56;;;;;;;6.57;5.55;;;;;;;21.97;50.72;96843.16;5012952;28;20351;-63
2021/09/08 09:15:23;;;;;;;8.80;5.35;;;;;;;22.01;50.33;96835.34;5013760;28;20191;-61
2021/09/08 09:17:49;;;;;;;6.88;5.72;;;;;;;21.95;49.39;96838.13;5015640;28;20236;-61
2021/09/08 09:20:30;;;;;;;8.55;5.38;;;;;;;22.08;50.00;96833.84;5015624;28;20257;-61
2021/09/08 09:22:57;;;;;;;5.97;5.15;;;;;;;22.27;50.19;96834.50;5030607;28;20754;-61
2021/09/08 09:25:27;;;;;;;6.05;5.20;;;;;;;22.14;50.53;96821.19;5015542;28;20274;-60
2021/09/08 09:27:55;;;;;;;6.75;5.13;;;;;;;22.12;48.92;96826.03;5014900;28;20230;-61
2021/09/08 09:30:23;;;;;;;7.15;5.32;;;;;;;22.00;49.38;96823.88;5015296;28;20176;-60
2021/09/08 09:32:51;;;;;;;6.95;5.15;;;;;;;22.19;49.15;96827.19;5030562;28;20274;-61
2021/09/08 09:35:21;;;;;;;6.28;4.80;;;;;;;22.35;49.11;96824.97;5015158;28;20251;-63
2021/09/08 09:37:49;;;;;;;6.80;5.32;;;;;;;21.85;49.19;96821.47;5014976;28;20199;-62
2021/09/08 09:40:17;;;;;;;4.88;4.35;;;;;;;21.48;50.67;96817.13;5014428;28;20313;-62
2021/09/08 09:42:44;;;;;;;6.65;4.97;;;;;;;21.82;51.39;96814.06;5014700;28;20198;-62
2021/09/08 09:45:12;;;;;;;7.45;5.00;;;;;;;22.19;49.61;96813.84;5014249;28;20186;-62
2021/09/08 09:47:41;;;;;;;6.43;5.00;;;;;;;22.52;48.88;96816.34;5015222;28;20183;-61
2021/09/08 09:50:09;;;;;;;6.10;5.30;;;;;;;22.38;49.08;96811.03;5014750;28;20265;-62
2021/09/08 09:52:36;;;;;;;6.60;5.35;;;;;;;21.81;51.44;96813.28;4999737;28;20218;-62
2021/09/08 09:55:05;;;;;;;7.13;5.80;;;;;;;21.65;52.09;96806.66;4993855;28;20223;-61
2021/09/08 09:57:31;;;;;;;6.25;5.05;;;;;;;21.76;50.63;96805.38;4995303;28;20176;-62
2021/09/08 09:59:58;;;;;;;6.60;5.30;;;;;;;22.14;49.80;96808.63;4995325;28;20656;-61
2021/09/08 10:02:24;;;;;;;6.53;4.97;;;;;;;22.14;50.24;96803.28;4995244;28;20180;-62
2021/09/08 10:04:50;;;;;;;6.28;5.57;;;;;;;22.17;51.22;96800.03;4994497;28;20621;-62
2021/09/08 10:07:23;;;;;;;6.13;5.50;;;;;;;22.32;50.29;96793.56;4994630;28;20191;-62
2021/09/08 10:09:53;;;;;;;8.23;5.53;;;;;;;22.38;50.67;96795.81;4995128;28;20212;-62
2021/09/08 10:12:23;;;;;;;6.15;5.28;;;;;;;22.58;49.86;96783.06;4995214;28;20263;-62
2021/09/08 10:14:51;;;;;;;6.40;5.25;;;;;;;22.60;49.72;96780.88;4995140;28;20180;-62
2021/09/08 10:17:21;;;;;;;7.50;5.20;;;;;;;22.75;49.40;96776.00;4994692;28;20234;-62
2021/09/08 10:19:49;;;;;;;6.22;5.05;;;;;;;22.59;49.87;96771.28;4994929;28;20176;-62
2021/09/08 10:22:15;;;;;;;5.88;5.18;;;;;;;22.66;49.64;96771.66;4994520;28;20561;-62
2021/09/08 10:24:47;;;;;;;7.35;5.50;;;;;;;22.58;50.04;96769.69;4994356;28;20196;-62
2021/09/08 10:27:27;;;;;;;5.93;5.10;;;;;;;22.90;49.55;96764.16;4994370;28;20184;-63
2021/09/08 10:29:54;;;;;;;8.40;5.32;;;;;;;23.05;49.22;96755.72;4994441;28;20230;-62
2021/09/08 10:32:21;;;;;;;7.13;5.30;;;;;;;23.06;48.55;96753.84;4994299;28;20710;-62
2021/09/08 10:34:48;;;;;;;5.60;5.07;;;;;;;22.93;49.48;96746.69;4994345;28;20179;-62
2021/09/08 10:37:14;;;;;;;7.03;5.30;;;;;;;22.75;48.99;96749.25;4994021;28;20610;-61
2021/09/08 10:39:41;;;;;;;5.75;5.15;;;;;;;22.89;49.57;96740.38;4976124;28;20246;-62
2021/09/08 10:42:07;;;;;;;5.90;4.75;;;;;;;23.15;48.91;96739.41;4993724;28;20656;-62
2021/09/08 10:44:51;;;;;;;8.30;5.57;;;;;;;22.84;49.48;96732.50;4993898;28;20235;-62
2021/09/08 10:47:34;;;;;;;6.90;5.18;;;;;;;22.42;50.18;96731.88;4994031;28;20180;-62
2021/09/08 10:50:00;;;;;;;6.35;5.07;;;;;;;22.32;50.86;96735.59;4993988;28;20182;-61
2021/09/08 10:52:34;;;;;;;5.70;5.10;;;;;;;22.32;49.81;96732.91;5011294;28;20179;-61
2021/09/08 10:55:00;;;;;;;6.03;5.43;;;;;;;22.40;50.23;96732.16;5028821;28;20201;-62
2021/09/08 10:57:40;;;;;;;7.68;5.50;;;;;;;22.65;49.69;96725.44;5012559;28;20183;-62
2021/09/08 11:00:12;;;;;;;6.07;4.95;;;;;;;22.87;49.63;96727.31;5013743;28;20261;-62
2021/09/08 11:02:42;;;;;;;6.32;5.10;;;;;;;22.73;50.10;96723.97;5014040;28;20172;-62
2021/09/08 11:05:11;;;;;;;5.15;4.65;;;;;;;22.72;49.68;96728.50;5013228;28;20187;-61
2021/09/08 11:07:40;;;;;;;7.10;5.50;;;;;;;22.76;50.14;96721.44;5013232;28;20175;-63
2021/09/08 11:10:06;;;;;;;8.60;5.07;;;;;;;23.19;48.29;96716.31;5012907;28;20227;-63
2021/09/08 11:12:49;;;;;;;5.75;5.13;;;;;;;23.43;48.11;96723.16;5013461;28;20203;-62
2021/09/08 11:15:15;;;;;;;7.55;5.22;;;;;;;23.70;47.78;96716.78;5013091;28;20230;-62
2021/09/08 11:17:41;;;;;;;5.82;4.75;;;;;;;23.75;48.74;96717.44;5013120;28;20652;-62
2021/09/08 11:20:09;;;;;;;6.90;5.45;;;;;;;23.48;48.40;96720.38;5013414;28;20348;-62
2021/09/08 11:22:35;;;;;;;5.45;4.78;;;;;;;23.38;48.00;96723.31;5013065;28;20179;-62
2021/09/08 11:25:07;;;;;;;7.55;5.13;;;;;;;23.59;48.02;96713.63;5011853;28;20532;-62